sensor_id;sensor_type;location;lat;lon;timestamp;P1;durP1;ratioP1;P2;durP2;ratioP2
12689;SDS011;6409;56.294;14.480;2023-08-08T00:02:23;0.40;;;0.40;;
12689;SDS011;6409;56.294;14.480;2023-08-08T00:04:49;0.60;;;0.60;;
12689;SDS011;6409;56.294;14.480;2023-08-08T00:07:16;0.93;;;0.53;;
12689;SDS011;6409;56.294;14.480;2023-08-08T00:09:43;0.30;;;0.30;;
12689;SDS011;6409;56.294;14.480;2023-08-08T00:12:11;0.40;;;0.40;;
12689;SDS011;6409;56.294;14.480;2023-08-08T00:14:38;0.40;;;0.40;;
12689;SDS011;6409;56.294;14.480;2023-08-08T00:17:05;0.50;;;0.50;;
12689;SDS011;6409;56.294;14.480;2023-08-08T00:19:32;0.40;;;0.40;;
12689;SDS011;6409;56.294;14.480;2023-08-08T00:21:59;0.40;;;0.40;;
12689;SDS011;6409;56.294;14.480;2023-08-08T00:24:26;0.40;;;0.40;;
12689;SDS011;6409;56.294;14.480;2023-08-08T00:26:53;0.80;;;0.60;;
12689;SDS011;6409;56.294;14.480;2023-08-08T00:29:21;0.40;;;0.40;;
12689;SDS011;6409;56.294;14.480;2023-08-08T00:31:48;0.37;;;0.37;;
12689;SDS011;6409;56.294;14.480;2023-08-08T00:34:15;0.70;;;0.53;;
12689;SDS011;6409;56.294;14.480;2023-08-08T00:36:42;0.50;;;0.43;;
12689;SDS011;6409;56.294;14.480;2023-08-08T00:39:09;0.50;;;0.50;;
12689;SDS011;6409;56.294;14.480;2023-08-08T00:41:36;0.30;;;0.30;;
12689;SDS011;6409;56.294;14.480;2023-08-08T00:44:03;0.57;;;0.57;;
12689;SDS011;6409;56.294;14.480;2023-08-08T00:46:31;1.17;;;0.70;;
12689;SDS011;6409;56.294;14.480;2023-08-08T00:48:58;0.40;;;0.40;;
12689;SDS011;6409;56.294;14.480;2023-08-08T00:51:25;0.57;;;0.57;;
12689;SDS011;6409;56.294;14.480;2023-08-08T00:53:52;2.83;;;0.77;;
12689;SDS011;6409;56.294;14.480;2023-08-08T00:56:19;0.43;;;0.43;;
12689;SDS011;6409;56.294;14.480;2023-08-08T00:58:46;0.70;;;0.70;;
12689;SDS011;6409;56.294;14.480;2023-08-08T01:01:15;0.67;;;0.67;;
12689;SDS011;6409;56.294;14.480;2023-08-08T01:03:45;1.17;;;0.77;;
12689;SDS011;6409;56.294;14.480;2023-08-08T01:06:13;0.50;;;0.50;;
12689;SDS011;6409;56.294;14.480;2023-08-08T01:08:45;0.47;;;0.47;;
12689;SDS011;6409;56.294;14.480;2023-08-08T01:11:14;0.40;;;0.40;;
12689;SDS011;6409;56.294;14.480;2023-08-08T01:13:42;0.50;;;0.50;;
12689;SDS011;6409;56.294;14.480;2023-08-08T01:16:09;1.07;;;0.80;;
12689;SDS011;6409;56.294;14.480;2023-08-08T01:18:37;0.60;;;0.60;;
12689;SDS011;6409;56.294;14.480;2023-08-08T01:21:05;0.30;;;0.30;;
12689;SDS011;6409;56.294;14.480;2023-08-08T01:23:34;0.47;;;0.47;;
12689;SDS011;6409;56.294;14.480;2023-08-08T01:26:09;1.17;;;0.90;;
12689;SDS011;6409;56.294;14.480;2023-08-08T01:28:36;1.47;;;0.77;;
12689;SDS011;6409;56.294;14.480;2023-08-08T01:31:03;0.57;;;0.57;;
12689;SDS011;6409;56.294;14.480;2023-08-08T01:33:30;0.80;;;0.80;;
12689;SDS011;6409;56.294;14.480;2023-08-08T01:35:59;0.67;;;0.67;;
12689;SDS011;6409;56.294;14.480;2023-08-08T01:38:30;1.13;;;1.03;;
12689;SDS011;6409;56.294;14.480;2023-08-08T01:40:59;3.00;;;1.10;;
12689;SDS011;6409;56.294;14.480;2023-08-08T01:43:27;0.57;;;0.57;;
12689;SDS011;6409;56.294;14.480;2023-08-08T01:45:55;1.30;;;0.83;;
12689;SDS011;6409;56.294;14.480;2023-08-08T01:48:22;0.50;;;0.50;;
12689;SDS011;6409;56.294;14.480;2023-08-08T01:50:49;1.80;;;0.67;;
12689;SDS011;6409;56.294;14.480;2023-08-08T01:53:16;0.57;;;0.57;;
12689;SDS011;6409;56.294;14.480;2023-08-08T01:55:43;0.87;;;0.83;;
12689;SDS011;6409;56.294;14.480;2023-08-08T01:58:10;0.93;;;0.40;;
12689;SDS011;6409;56.294;14.480;2023-08-08T02:00:38;1.50;;;0.70;;
12689;SDS011;6409;56.294;14.480;2023-08-08T02:03:06;2.07;;;1.07;;
12689;SDS011;6409;56.294;14.480;2023-08-08T02:05:33;0.87;;;0.63;;
12689;SDS011;6409;56.294;14.480;2023-08-08T02:08:00;0.40;;;0.40;;
12689;SDS011;6409;56.294;14.480;2023-08-08T02:10:27;0.60;;;0.57;;
12689;SDS011;6409;56.294;14.480;2023-08-08T02:12:54;0.70;;;0.60;;
12689;SDS011;6409;56.294;14.480;2023-08-08T02:15:20;2.47;;;0.60;;
12689;SDS011;6409;56.294;14.480;2023-08-08T02:17:49;0.73;;;0.60;;
12689;SDS011;6409;56.294;14.480;2023-08-08T02:20:16;0.83;;;0.83;;
12689;SDS011;6409;56.294;14.480;2023-08-08T02:22:44;0.83;;;0.70;;
12689;SDS011;6409;56.294;14.480;2023-08-08T02:25:11;0.40;;;0.40;;
12689;SDS011;6409;56.294;14.480;2023-08-08T02:27:38;0.50;;;0.50;;
12689;SDS011;6409;56.294;14.480;2023-08-08T02:30:05;0.50;;;0.50;;
12689;SDS011;6409;56.294;14.480;2023-08-08T02:32:33;0.77;;;0.67;;
12689;SDS011;6409;56.294;14.480;2023-08-08T02:35:01;0.43;;;0.43;;
12689;SDS011;6409;56.294;14.480;2023-08-08T02:37:28;0.70;;;0.50;;
12689;SDS011;6409;56.294;14.480;2023-08-08T02:39:55;0.80;;;0.80;;
12689;SDS011;6409;56.294;14.480;2023-08-08T02:42:22;1.03;;;0.70;;
12689;SDS011;6409;56.294;14.480;2023-08-08T02:44:49;1.73;;;0.60;;
12689;SDS011;6409;56.294;14.480;2023-08-08T02:47:16;0.87;;;0.67;;
12689;SDS011;6409;56.294;14.480;2023-08-08T02:49:42;0.60;;;0.60;;
12689;SDS011;6409;56.294;14.480;2023-08-08T02:52:11;0.60;;;0.60;;
12689;SDS011;6409;56.294;14.480;2023-08-08T02:54:38;0.57;;;0.57;;
12689;SDS011;6409;56.294;14.480;2023-08-08T02:57:04;1.07;;;0.80;;
12689;SDS011;6409;56.294;14.480;2023-08-08T02:59:31;0.67;;;0.67;;
12689;SDS011;6409;56.294;14.480;2023-08-08T03:01:58;0.57;;;0.57;;
12689;SDS011;6409;56.294;14.480;2023-08-08T03:04:26;1.00;;;0.60;;
12689;SDS011;6409;56.294;14.480;2023-08-08T03:06:53;0.40;;;0.40;;
12689;SDS011;6409;56.294;14.480;2023-08-08T03:09:21;0.60;;;0.60;;
12689;SDS011;6409;56.294;14.480;2023-08-08T03:11:48;0.70;;;0.70;;
12689;SDS011;6409;56.294;14.480;2023-08-08T03:14:15;0.57;;;0.57;;
12689;SDS011;6409;56.294;14.480;2023-08-08T03:16:42;0.53;;;0.53;;
12689;SDS011;6409;56.294;14.480;2023-08-08T03:19:09;0.40;;;0.40;;
12689;SDS011;6409;56.294;14.480;2023-08-08T03:21:36;0.40;;;0.40;;
12689;SDS011;6409;56.294;14.480;2023-08-08T03:24:04;0.40;;;0.40;;
12689;SDS011;6409;56.294;14.480;2023-08-08T03:26:32;0.40;;;0.40;;
12689;SDS011;6409;56.294;14.480;2023-08-08T03:28:59;0.50;;;0.50;;
12689;SDS011;6409;56.294;14.480;2023-08-08T03:31:26;0.50;;;0.50;;
12689;SDS011;6409;56.294;14.480;2023-08-08T03:33:53;0.50;;;0.50;;
12689;SDS011;6409;56.294;14.480;2023-08-08T03:36:20;0.40;;;0.40;;
12689;SDS011;6409;56.294;14.480;2023-08-08T03:38:46;0.53;;;0.53;;
12689;SDS011;6409;56.294;14.480;2023-08-08T03:41:13;0.70;;;0.70;;
12689;SDS011;6409;56.294;14.480;2023-08-08T03:43:42;1.10;;;0.53;;
12689;SDS011;6409;56.294;14.480;2023-08-08T03:46:09;0.50;;;0.50;;
12689;SDS011;6409;56.294;14.480;2023-08-08T03:48:36;0.40;;;0.40;;
12689;SDS011;6409;56.294;14.480;2023-08-08T03:51:03;0.60;;;0.60;;
12689;SDS011;6409;56.294;14.480;2023-08-08T03:53:30;0.47;;;0.47;;
12689;SDS011;6409;56.294;14.480;2023-08-08T03:55:57;0.60;;;0.60;;
12689;SDS011;6409;56.294;14.480;2023-08-08T03:58:24;0.73;;;0.47;;
12689;SDS011;6409;56.294;14.480;2023-08-08T04:00:53;0.73;;;0.57;;
12689;SDS011;6409;56.294;14.480;2023-08-08T04:03:20;0.97;;;0.67;;
12689;SDS011;6409;56.294;14.480;2023-08-08T04:05:46;0.87;;;0.70;;
12689;SDS011;6409;56.294;14.480;2023-08-08T04:08:13;0.63;;;0.60;;
12689;SDS011;6409;56.294;14.480;2023-08-08T04:10:40;1.33;;;0.70;;
12689;SDS011;6409;56.294;14.480;2023-08-08T04:13:07;1.13;;;0.63;;
12689;SDS011;6409;56.294;14.480;2023-08-08T04:15:34;0.60;;;0.57;;
12689;SDS011;6409;56.294;14.480;2023-08-08T04:18:03;0.50;;;0.50;;
12689;SDS011;6409;56.294;14.480;2023-08-08T04:20:31;0.70;;;0.60;;
12689;SDS011;6409;56.294;14.480;2023-08-08T04:22:58;0.43;;;0.43;;
12689;SDS011;6409;56.294;14.480;2023-08-08T04:25:25;0.50;;;0.50;;
12689;SDS011;6409;56.294;14.480;2023-08-08T04:27:53;0.60;;;0.60;;
12689;SDS011;6409;56.294;14.480;2023-08-08T04:30:20;0.77;;;0.63;;
12689;SDS011;6409;56.294;14.480;2023-08-08T04:32:47;1.00;;;0.73;;
12689;SDS011;6409;56.294;14.480;2023-08-08T04:35:15;2.60;;;0.80;;
12689;SDS011;6409;56.294;14.480;2023-08-08T04:37:42;0.50;;;0.50;;
12689;SDS011;6409;56.294;14.480;2023-08-08T04:40:09;1.00;;;0.80;;
12689;SDS011;6409;56.294;14.480;2023-08-08T04:42:36;0.73;;;0.57;;
12689;SDS011;6409;56.294;14.480;2023-08-08T04:45:04;0.57;;;0.57;;
12689;SDS011;6409;56.294;14.480;2023-08-08T04:47:32;0.50;;;0.50;;
12689;SDS011;6409;56.294;14.480;2023-08-08T04:49:59;0.70;;;0.70;;
12689;SDS011;6409;56.294;14.480;2023-08-08T04:52:27;0.80;;;0.60;;
12689;SDS011;6409;56.294;14.480;2023-08-08T04:54:54;0.97;;;0.63;;
12689;SDS011;6409;56.294;14.480;2023-08-08T04:57:21;0.50;;;0.50;;
12689;SDS011;6409;56.294;14.480;2023-08-08T04:59:48;1.03;;;0.50;;
12689;SDS011;6409;56.294;14.480;2023-08-08T05:02:15;0.50;;;0.50;;
12689;SDS011;6409;56.294;14.480;2023-08-08T05:04:42;2.43;;;0.73;;
12689;SDS011;6409;56.294;14.480;2023-08-08T05:07:09;0.60;;;0.40;;
12689;SDS011;6409;56.294;14.480;2023-08-08T05:09:37;0.40;;;0.40;;
12689;SDS011;6409;56.294;14.480;2023-08-08T05:12:05;1.70;;;0.87;;
12689;SDS011;6409;56.294;14.480;2023-08-08T05:14:33;0.40;;;0.40;;
12689;SDS011;6409;56.294;14.480;2023-08-08T05:17:01;0.40;;;0.40;;
12689;SDS011;6409;56.294;14.480;2023-08-08T05:19:28;0.37;;;0.37;;
12689;SDS011;6409;56.294;14.480;2023-08-08T05:21:55;0.80;;;0.73;;
12689;SDS011;6409;56.294;14.480;2023-08-08T05:24:22;0.93;;;0.70;;
12689;SDS011;6409;56.294;14.480;2023-08-08T05:26:50;1.07;;;0.63;;
12689;SDS011;6409;56.294;14.480;2023-08-08T05:29:18;0.97;;;0.83;;
12689;SDS011;6409;56.294;14.480;2023-08-08T05:31:45;0.60;;;0.60;;
12689;SDS011;6409;56.294;14.480;2023-08-08T05:34:12;0.40;;;0.40;;
12689;SDS011;6409;56.294;14.480;2023-08-08T05:36:39;1.17;;;0.83;;
12689;SDS011;6409;56.294;14.480;2023-08-08T05:39:07;0.60;;;0.60;;
12689;SDS011;6409;56.294;14.480;2023-08-08T05:41:34;0.50;;;0.50;;
12689;SDS011;6409;56.294;14.480;2023-08-08T05:44:03;0.50;;;0.50;;
12689;SDS011;6409;56.294;14.480;2023-08-08T05:46:30;0.40;;;0.40;;
12689;SDS011;6409;56.294;14.480;2023-08-08T05:48:57;0.60;;;0.60;;
12689;SDS011;6409;56.294;14.480;2023-08-08T05:51:23;1.30;;;0.80;;
12689;SDS011;6409;56.294;14.480;2023-08-08T05:53:50;0.60;;;0.60;;
12689;SDS011;6409;56.294;14.480;2023-08-08T05:56:17;0.40;;;0.40;;
12689;SDS011;6409;56.294;14.480;2023-08-08T05:58:44;0.40;;;0.40;;
12689;SDS011;6409;56.294;14.480;2023-08-08T06:01:12;0.40;;;0.40;;
12689;SDS011;6409;56.294;14.480;2023-08-08T06:03:39;1.20;;;0.80;;
12689;SDS011;6409;56.294;14.480;2023-08-08T06:06:07;0.93;;;0.60;;
12689;SDS011;6409;56.294;14.480;2023-08-08T06:08:34;5.20;;;0.63;;
12689;SDS011;6409;56.294;14.480;2023-08-08T06:11:01;0.80;;;0.67;;
12689;SDS011;6409;56.294;14.480;2023-08-08T06:13:28;1.10;;;0.70;;
12689;SDS011;6409;56.294;14.480;2023-08-08T06:15:55;2.10;;;0.97;;
12689;SDS011;6409;56.294;14.480;2023-08-08T06:18:23;2.67;;;0.80;;
12689;SDS011;6409;56.294;14.480;2023-08-08T06:20:50;1.30;;;0.73;;
12689;SDS011;6409;56.294;14.480;2023-08-08T06:23:17;1.37;;;0.80;;
12689;SDS011;6409;56.294;14.480;2023-08-08T06:25:44;0.87;;;0.77;;
12689;SDS011;6409;56.294;14.480;2023-08-08T06:28:10;0.63;;;0.63;;
12689;SDS011;6409;56.294;14.480;2023-08-08T06:30:37;1.33;;;0.80;;
12689;SDS011;6409;56.294;14.480;2023-08-08T06:33:04;0.73;;;0.73;;
12689;SDS011;6409;56.294;14.480;2023-08-08T06:35:32;1.10;;;0.90;;
12689;SDS011;6409;56.294;14.480;2023-08-08T06:37:59;1.90;;;1.30;;
12689;SDS011;6409;56.294;14.480;2023-08-08T06:40:26;0.67;;;0.67;;
12689;SDS011;6409;56.294;14.480;2023-08-08T06:42:53;0.70;;;0.70;;
12689;SDS011;6409;56.294;14.480;2023-08-08T06:45:20;0.50;;;0.50;;
12689;SDS011;6409;56.294;14.480;2023-08-08T06:47:47;1.17;;;0.90;;
12689;SDS011;6409;56.294;14.480;2023-08-08T06:50:14;0.67;;;0.67;;
12689;SDS011;6409;56.294;14.480;2023-08-08T06:52:43;0.50;;;0.50;;
12689;SDS011;6409;56.294;14.480;2023-08-08T06:55:10;1.20;;;0.70;;
12689;SDS011;6409;56.294;14.480;2023-08-08T06:57:37;0.73;;;0.73;;
12689;SDS011;6409;56.294;14.480;2023-08-08T07:00:04;0.67;;;0.67;;
12689;SDS011;6409;56.294;14.480;2023-08-08T07:02:33;1.47;;;0.80;;
12689;SDS011;6409;56.294;14.480;2023-08-08T07:05:00;0.53;;;0.53;;
12689;SDS011;6409;56.294;14.480;2023-08-08T07:07:28;1.90;;;0.90;;
12689;SDS011;6409;56.294;14.480;2023-08-08T07:09:57;1.03;;;0.60;;
12689;SDS011;6409;56.294;14.480;2023-08-08T07:12:24;0.53;;;0.53;;
12689;SDS011;6409;56.294;14.480;2023-08-08T07:14:51;0.43;;;0.40;;
12689;SDS011;6409;56.294;14.480;2023-08-08T07:17:18;0.80;;;0.80;;
12689;SDS011;6409;56.294;14.480;2023-08-08T07:19:45;0.70;;;0.60;;
12689;SDS011;6409;56.294;14.480;2023-08-08T07:22:12;0.50;;;0.50;;
12689;SDS011;6409;56.294;14.480;2023-08-08T07:24:38;0.60;;;0.60;;
12689;SDS011;6409;56.294;14.480;2023-08-08T07:27:07;1.03;;;0.70;;
12689;SDS011;6409;56.294;14.480;2023-08-08T07:29:34;0.90;;;0.90;;
12689;SDS011;6409;56.294;14.480;2023-08-08T07:32:02;1.03;;;0.63;;
12689;SDS011;6409;56.294;14.480;2023-08-08T07:34:29;1.77;;;0.93;;
12689;SDS011;6409;56.294;14.480;2023-08-08T07:36:57;0.80;;;0.80;;
12689;SDS011;6409;56.294;14.480;2023-08-08T07:39:24;2.07;;;0.70;;
12689;SDS011;6409;56.294;14.480;2023-08-08T07:41:51;0.93;;;0.60;;
12689;SDS011;6409;56.294;14.480;2023-08-08T07:44:19;0.80;;;0.80;;
12689;SDS011;6409;56.294;14.480;2023-08-08T07:46:46;1.90;;;0.77;;
12689;SDS011;6409;56.294;14.480;2023-08-08T07:49:13;0.77;;;0.77;;
12689;SDS011;6409;56.294;14.480;2023-08-08T07:51:40;1.43;;;1.00;;
12689;SDS011;6409;56.294;14.480;2023-08-08T07:54:07;1.37;;;0.67;;
12689;SDS011;6409;56.294;14.480;2023-08-08T07:56:35;1.30;;;0.77;;
12689;SDS011;6409;56.294;14.480;2023-08-08T07:59:02;0.80;;;0.50;;
12689;SDS011;6409;56.294;14.480;2023-08-08T08:01:31;1.70;;;1.10;;
12689;SDS011;6409;56.294;14.480;2023-08-08T08:03:58;0.77;;;0.77;;
12689;SDS011;6409;56.294;14.480;2023-08-08T08:06:25;1.50;;;0.60;;
12689;SDS011;6409;56.294;14.480;2023-08-08T08:08:52;0.60;;;0.60;;
12689;SDS011;6409;56.294;14.480;2023-08-08T08:11:19;1.70;;;0.90;;
12689;SDS011;6409;56.294;14.480;2023-08-08T08:13:46;0.63;;;0.60;;
12689;SDS011;6409;56.294;14.480;2023-08-08T08:16:13;0.80;;;0.80;;
12689;SDS011;6409;56.294;14.480;2023-08-08T08:18:41;1.40;;;0.90;;
12689;SDS011;6409;56.294;14.480;2023-08-08T08:21:08;0.50;;;0.50;;
12689;SDS011;6409;56.294;14.480;2023-08-08T08:23:35;0.50;;;0.50;;
12689;SDS011;6409;56.294;14.480;2023-08-08T08:26:02;0.63;;;0.63;;
12689;SDS011;6409;56.294;14.480;2023-08-08T08:28:29;0.73;;;0.60;;
12689;SDS011;6409;56.294;14.480;2023-08-08T08:30:56;0.60;;;0.60;;
12689;SDS011;6409;56.294;14.480;2023-08-08T08:33:22;0.73;;;0.73;;
12689;SDS011;6409;56.294;14.480;2023-08-08T08:35:51;1.50;;;0.60;;
12689;SDS011;6409;56.294;14.480;2023-08-08T08:38:18;0.97;;;0.63;;
12689;SDS011;6409;56.294;14.480;2023-08-08T08:40:44;0.93;;;0.53;;
12689;SDS011;6409;56.294;14.480;2023-08-08T08:43:13;0.43;;;0.40;;
12689;SDS011;6409;56.294;14.480;2023-08-08T08:45:40;0.70;;;0.70;;
12689;SDS011;6409;56.294;14.480;2023-08-08T08:48:10;0.67;;;0.67;;
12689;SDS011;6409;56.294;14.480;2023-08-08T08:50:37;0.60;;;0.60;;
12689;SDS011;6409;56.294;14.480;2023-08-08T08:53:06;0.83;;;0.83;;
12689;SDS011;6409;56.294;14.480;2023-08-08T08:55:33;10.27;;;1.17;;
12689;SDS011;6409;56.294;14.480;2023-08-08T08:58:00;1.37;;;0.80;;
12689;SDS011;6409;56.294;14.480;2023-08-08T09:00:28;1.60;;;0.83;;
12689;SDS011;6409;56.294;14.480;2023-08-08T09:02:55;0.60;;;0.60;;
12689;SDS011;6409;56.294;14.480;2023-08-08T09:05:22;0.80;;;0.80;;
12689;SDS011;6409;56.294;14.480;2023-08-08T09:07:50;1.63;;;1.10;;
12689;SDS011;6409;56.294;14.480;2023-08-08T09:10:19;1.03;;;1.00;;
12689;SDS011;6409;56.294;14.480;2023-08-08T09:12:46;0.60;;;0.60;;
12689;SDS011;6409;56.294;14.480;2023-08-08T09:15:14;0.97;;;0.80;;
12689;SDS011;6409;56.294;14.480;2023-08-08T09:17:41;2.00;;;1.20;;
12689;SDS011;6409;56.294;14.480;2023-08-08T09:20:09;1.33;;;0.87;;
12689;SDS011;6409;56.294;14.480;2023-08-08T09:22:37;1.00;;;0.90;;
12689;SDS011;6409;56.294;14.480;2023-08-08T09:25:04;0.80;;;0.80;;
12689;SDS011;6409;56.294;14.480;2023-08-08T09:27:34;0.93;;;0.60;;
12689;SDS011;6409;56.294;14.480;2023-08-08T09:30:01;1.13;;;0.80;;
12689;SDS011;6409;56.294;14.480;2023-08-08T09:32:29;1.00;;;0.60;;
12689;SDS011;6409;56.294;14.480;2023-08-08T09:34:56;0.60;;;0.60;;
12689;SDS011;6409;56.294;14.480;2023-08-08T09:37:23;0.70;;;0.70;;
12689;SDS011;6409;56.294;14.480;2023-08-08T09:39:55;2.43;;;0.93;;
12689;SDS011;6409;56.294;14.480;2023-08-08T09:42:23;1.40;;;0.80;;
12689;SDS011;6409;56.294;14.480;2023-08-08T09:44:51;0.90;;;0.80;;
12689;SDS011;6409;56.294;14.480;2023-08-08T09:47:20;0.63;;;0.63;;
12689;SDS011;6409;56.294;14.480;2023-08-08T09:49:47;0.80;;;0.80;;
12689;SDS011;6409;56.294;14.480;2023-08-08T09:52:14;0.70;;;0.70;;
12689;SDS011;6409;56.294;14.480;2023-08-08T09:54:42;0.80;;;0.70;;
12689;SDS011;6409;56.294;14.480;2023-08-08T09:57:10;0.60;;;0.60;;
12689;SDS011;6409;56.294;14.480;2023-08-08T09:59:37;0.60;;;0.60;;
12689;SDS011;6409;56.294;14.480;2023-08-08T10:02:05;0.60;;;0.60;;
12689;SDS011;6409;56.294;14.480;2023-08-08T10:04:36;0.77;;;0.70;;
12689;SDS011;6409;56.294;14.480;2023-08-08T10:07:04;0.67;;;0.67;;
12689;SDS011;6409;56.294;14.480;2023-08-08T10:09:31;0.83;;;0.63;;
12689;SDS011;6409;56.294;14.480;2023-08-08T10:11:58;0.83;;;0.83;;
12689;SDS011;6409;56.294;14.480;2023-08-08T10:14:28;0.53;;;0.53;;
12689;SDS011;6409;56.294;14.480;2023-08-08T10:16:55;0.60;;;0.60;;
12689;SDS011;6409;56.294;14.480;2023-08-08T10:19:24;0.50;;;0.50;;
12689;SDS011;6409;56.294;14.480;2023-08-08T10:21:55;0.50;;;0.50;;
12689;SDS011;6409;56.294;14.480;2023-08-08T10:24:24;0.60;;;0.60;;
12689;SDS011;6409;56.294;14.480;2023-08-08T10:26:51;0.60;;;0.60;;
12689;SDS011;6409;56.294;14.480;2023-08-08T10:29:19;0.60;;;0.60;;
12689;SDS011;6409;56.294;14.480;2023-08-08T10:31:52;0.93;;;0.50;;
12689;SDS011;6409;56.294;14.480;2023-08-08T10:34:20;0.67;;;0.63;;
12689;SDS011;6409;56.294;14.480;2023-08-08T10:36:52;0.53;;;0.53;;
12689;SDS011;6409;56.294;14.480;2023-08-08T10:39:19;0.53;;;0.53;;
12689;SDS011;6409;56.294;14.480;2023-08-08T10:41:47;1.37;;;0.93;;
12689;SDS011;6409;56.294;14.480;2023-08-08T10:44:20;0.50;;;0.50;;
12689;SDS011;6409;56.294;14.480;2023-08-08T10:46:49;0.60;;;0.60;;
12689;SDS011;6409;56.294;14.480;2023-08-08T10:49:17;0.73;;;0.73;;
12689;SDS011;6409;56.294;14.480;2023-08-08T10:51:45;0.43;;;0.43;;
12689;SDS011;6409;56.294;14.480;2023-08-08T10:54:15;3.30;;;1.07;;
12689;SDS011;6409;56.294;14.480;2023-08-08T10:56:47;1.03;;;0.87;;
12689;SDS011;6409;56.294;14.480;2023-08-08T10:59:16;0.83;;;0.83;;
12689;SDS011;6409;56.294;14.480;2023-08-08T11:01:47;0.43;;;0.43;;
12689;SDS011;6409;56.294;14.480;2023-08-08T11:04:15;2.40;;;0.93;;
12689;SDS011;6409;56.294;14.480;2023-08-08T11:06:42;1.07;;;0.80;;
12689;SDS011;6409;56.294;14.480;2023-08-08T11:09:10;0.93;;;0.90;;
12689;SDS011;6409;56.294;14.480;2023-08-08T11:11:39;1.27;;;0.80;;
12689;SDS011;6409;56.294;14.480;2023-08-08T11:14:11;0.60;;;0.60;;
12689;SDS011;6409;56.294;14.480;2023-08-08T11:16:39;1.07;;;0.60;;
12689;SDS011;6409;56.294;14.480;2023-08-08T11:19:06;2.23;;;1.00;;
12689;SDS011;6409;56.294;14.480;2023-08-08T11:21:33;0.60;;;0.60;;
12689;SDS011;6409;56.294;14.480;2023-08-08T11:24:02;0.63;;;0.63;;
12689;SDS011;6409;56.294;14.480;2023-08-08T11:26:29;0.63;;;0.63;;
12689;SDS011;6409;56.294;14.480;2023-08-08T11:28:59;1.93;;;0.93;;
12689;SDS011;6409;56.294;14.480;2023-08-08T11:31:27;0.77;;;0.77;;
12689;SDS011;6409;56.294;14.480;2023-08-08T11:33:55;0.70;;;0.70;;
12689;SDS011;6409;56.294;14.480;2023-08-08T11:36:22;0.60;;;0.60;;
12689;SDS011;6409;56.294;14.480;2023-08-08T11:38:49;1.37;;;0.63;;
12689;SDS011;6409;56.294;14.480;2023-08-08T11:41:17;0.40;;;0.40;;
12689;SDS011;6409;56.294;14.480;2023-08-08T11:43:46;1.90;;;0.70;;
12689;SDS011;6409;56.294;14.480;2023-08-08T11:46:14;1.17;;;1.07;;
12689;SDS011;6409;56.294;14.480;2023-08-08T11:48:42;0.60;;;0.60;;
12689;SDS011;6409;56.294;14.480;2023-08-08T11:51:13;1.30;;;0.70;;
12689;SDS011;6409;56.294;14.480;2023-08-08T11:53:47;0.70;;;0.70;;
12689;SDS011;6409;56.294;14.480;2023-08-08T11:56:15;0.90;;;0.90;;
12689;SDS011;6409;56.294;14.480;2023-08-08T11:58:42;0.73;;;0.73;;
12689;SDS011;6409;56.294;14.480;2023-08-08T12:01:09;0.70;;;0.70;;
12689;SDS011;6409;56.294;14.480;2023-08-08T12:03:40;0.93;;;0.93;;
12689;SDS011;6409;56.294;14.480;2023-08-08T12:06:13;1.50;;;0.80;;
12689;SDS011;6409;56.294;14.480;2023-08-08T12:08:41;0.90;;;0.83;;
12689;SDS011;6409;56.294;14.480;2023-08-08T12:11:09;0.60;;;0.60;;
12689;SDS011;6409;56.294;14.480;2023-08-08T12:13:36;0.67;;;0.67;;
12689;SDS011;6409;56.294;14.480;2023-08-08T12:16:04;1.20;;;1.10;;
12689;SDS011;6409;56.294;14.480;2023-08-08T12:18:32;1.30;;;1.00;;
12689;SDS011;6409;56.294;14.480;2023-08-08T12:21:01;1.00;;;0.73;;
12689;SDS011;6409;56.294;14.480;2023-08-08T12:23:28;0.93;;;0.93;;
12689;SDS011;6409;56.294;14.480;2023-08-08T12:25:55;1.80;;;1.00;;
12689;SDS011;6409;56.294;14.480;2023-08-08T12:28:23;0.80;;;0.80;;
12689;SDS011;6409;56.294;14.480;2023-08-08T12:30:50;1.90;;;1.23;;
12689;SDS011;6409;56.294;14.480;2023-08-08T12:33:17;0.70;;;0.70;;
12689;SDS011;6409;56.294;14.480;2023-08-08T12:35:45;1.67;;;0.97;;
12689;SDS011;6409;56.294;14.480;2023-08-08T12:38:13;1.07;;;0.90;;
12689;SDS011;6409;56.294;14.480;2023-08-08T12:40:40;2.43;;;1.07;;
12689;SDS011;6409;56.294;14.480;2023-08-08T12:43:08;1.33;;;1.20;;
12689;SDS011;6409;56.294;14.480;2023-08-08T12:45:38;0.73;;;0.73;;
12689;SDS011;6409;56.294;14.480;2023-08-08T12:48:05;1.67;;;1.10;;
12689;SDS011;6409;56.294;14.480;2023-08-08T12:50:32;1.10;;;1.10;;
12689;SDS011;6409;56.294;14.480;2023-08-08T12:52:59;1.53;;;1.43;;
12689;SDS011;6409;56.294;14.480;2023-08-08T12:55:27;1.73;;;1.30;;
12689;SDS011;6409;56.294;14.480;2023-08-08T12:57:54;2.93;;;1.43;;
12689;SDS011;6409;56.294;14.480;2023-08-08T13:00:22;1.10;;;1.10;;
12689;SDS011;6409;56.294;14.480;2023-08-08T13:02:49;2.03;;;1.90;;
12689;SDS011;6409;56.294;14.480;2023-08-08T13:05:17;1.10;;;1.10;;
12689;SDS011;6409;56.294;14.480;2023-08-08T13:07:43;1.27;;;1.20;;
12689;SDS011;6409;56.294;14.480;2023-08-08T13:10:10;1.30;;;1.30;;
12689;SDS011;6409;56.294;14.480;2023-08-08T13:12:39;1.27;;;1.20;;
12689;SDS011;6409;56.294;14.480;2023-08-08T13:15:06;1.20;;;1.20;;
12689;SDS011;6409;56.294;14.480;2023-08-08T13:17:34;2.60;;;1.70;;
12689;SDS011;6409;56.294;14.480;2023-08-08T13:20:01;1.30;;;1.30;;
12689;SDS011;6409;56.294;14.480;2023-08-08T13:22:28;1.50;;;1.40;;
12689;SDS011;6409;56.294;14.480;2023-08-08T13:24:55;1.40;;;1.40;;
12689;SDS011;6409;56.294;14.480;2023-08-08T13:27:22;1.60;;;1.50;;
12689;SDS011;6409;56.294;14.480;2023-08-08T13:29:50;1.67;;;1.60;;
12689;SDS011;6409;56.294;14.480;2023-08-08T13:32:17;1.50;;;1.40;;
12689;SDS011;6409;56.294;14.480;2023-08-08T13:34:44;1.70;;;1.60;;
12689;SDS011;6409;56.294;14.480;2023-08-08T13:37:11;1.47;;;1.47;;
12689;SDS011;6409;56.294;14.480;2023-08-08T13:39:38;1.70;;;1.57;;
12689;SDS011;6409;56.294;14.480;2023-08-08T13:42:05;1.40;;;1.40;;
12689;SDS011;6409;56.294;14.480;2023-08-08T13:44:32;1.50;;;1.50;;
12689;SDS011;6409;56.294;14.480;2023-08-08T13:47:00;1.80;;;1.70;;
12689;SDS011;6409;56.294;14.480;2023-08-08T13:49:27;1.77;;;1.70;;
12689;SDS011;6409;56.294;14.480;2023-08-08T13:51:54;2.10;;;1.90;;
12689;SDS011;6409;56.294;14.480;2023-08-08T13:54:21;2.80;;;1.87;;
12689;SDS011;6409;56.294;14.480;2023-08-08T13:56:48;1.90;;;1.80;;
12689;SDS011;6409;56.294;14.480;2023-08-08T13:59:15;1.80;;;1.70;;
12689;SDS011;6409;56.294;14.480;2023-08-08T14:01:42;2.20;;;2.10;;
12689;SDS011;6409;56.294;14.480;2023-08-08T14:04:10;3.37;;;1.80;;
12689;SDS011;6409;56.294;14.480;2023-08-08T14:06:37;1.93;;;1.83;;
12689;SDS011;6409;56.294;14.480;2023-08-08T14:09:04;3.40;;;1.87;;
12689;SDS011;6409;56.294;14.480;2023-08-08T14:11:32;1.87;;;1.87;;
12689;SDS011;6409;56.294;14.480;2023-08-08T14:13:59;2.03;;;1.80;;
12689;SDS011;6409;56.294;14.480;2023-08-08T14:16:26;1.60;;;1.60;;
12689;SDS011;6409;56.294;14.480;2023-08-08T14:18:53;2.03;;;1.93;;
12689;SDS011;6409;56.294;14.480;2023-08-08T14:21:21;1.80;;;1.80;;
12689;SDS011;6409;56.294;14.480;2023-08-08T14:23:48;5.40;;;2.30;;
12689;SDS011;6409;56.294;14.480;2023-08-08T14:26:15;2.30;;;2.20;;
12689;SDS011;6409;56.294;14.480;2023-08-08T14:28:42;2.20;;;2.00;;
12689;SDS011;6409;56.294;14.480;2023-08-08T14:31:09;2.20;;;2.10;;
12689;SDS011;6409;56.294;14.480;2023-08-08T14:33:36;2.60;;;2.50;;
12689;SDS011;6409;56.294;14.480;2023-08-08T14:36:03;1.90;;;1.90;;
12689;SDS011;6409;56.294;14.480;2023-08-08T14:38:34;2.20;;;2.10;;
12689;SDS011;6409;56.294;14.480;2023-08-08T14:41:01;2.40;;;2.30;;
12689;SDS011;6409;56.294;14.480;2023-08-08T14:43:29;2.30;;;2.20;;
12689;SDS011;6409;56.294;14.480;2023-08-08T14:45:55;2.50;;;2.30;;
12689;SDS011;6409;56.294;14.480;2023-08-08T14:48:22;2.50;;;2.40;;
12689;SDS011;6409;56.294;14.480;2023-08-08T14:50:49;2.23;;;2.13;;